Portland, Michigan
Current Conditions -  °F | °C
As of 6:33 PM on Sunday 28 Dec 2014 (Local Time) from KY70 Reporting Station
Clear Clear  
Wind Chill: 24°   Ceiling: Unl
Heat Index: 30°   Visibility: 10mi
Dew Point: 22°   Wind: 6mph
Humidity: 71%   Direction: 290°WNW
Pressure: 30.14"   Gusts: NA
Location:  42.87°N, 84.9°W
Report Text: KY70 282333Z AUTO 29005KT 10SM CLR M01/M06 A3014 RMK AO2 T10101056
Loading
Personal Weather Stations






























Interactive Weather Map New forecast layout! Learn more

10-Day Weather Forecast

Advertisements
Track Severe Weather on mobile